createdAt,value
2024-03-27T00:00:30.185Z,4.64
2024-03-27T00:02:57.577Z,4.53
2024-03-27T00:05:25.055Z,4.43
2024-03-27T00:07:52.435Z,4.40
2024-03-27T00:10:19.859Z,4.36
2024-03-27T00:12:47.806Z,4.34
2024-03-27T00:15:16.601Z,4.36
2024-03-27T00:17:44.359Z,4.37
2024-03-27T00:20:11.985Z,4.34
2024-03-27T00:22:39.366Z,4.25
2024-03-27T00:25:07.366Z,4.16
2024-03-27T00:27:34.717Z,4.02
2024-03-27T00:30:02.066Z,3.97
2024-03-27T00:32:29.404Z,3.92
2024-03-27T00:34:56.805Z,3.97
2024-03-27T00:37:24.083Z,3.95
2024-03-27T00:39:51.399Z,4.00
2024-03-27T00:42:19.063Z,4.01
2024-03-27T00:44:46.974Z,3.99
2024-03-27T00:47:14.309Z,4.03
2024-03-27T00:49:41.890Z,4.06
2024-03-27T00:52:09.235Z,4.05
2024-03-27T00:54:36.573Z,4.07
2024-03-27T00:57:04.713Z,4.04
2024-03-27T00:59:35.111Z,4.06
2024-03-27T01:02:02.446Z,4.09
2024-03-27T01:04:29.763Z,4.15
2024-03-27T01:06:57.023Z,4.20
2024-03-27T01:09:24.325Z,4.24
2024-03-27T01:11:51.643Z,4.27
2024-03-27T01:14:18.905Z,4.21
2024-03-27T01:16:46.263Z,4.18
2024-03-27T01:19:13.550Z,4.20
2024-03-27T01:21:40.859Z,4.19
2024-03-27T01:24:08.296Z,4.19
2024-03-27T01:26:35.574Z,4.20
2024-03-27T01:29:02.954Z,4.18
2024-03-27T01:31:30.334Z,4.14
2024-03-27T01:33:57.601Z,4.14
2024-03-27T01:36:24.939Z,4.15
2024-03-27T01:38:52.247Z,4.18
2024-03-27T01:41:19.588Z,4.22
2024-03-27T01:43:46.899Z,4.20
2024-03-27T01:46:15.176Z,4.17
2024-03-27T01:48:42.494Z,4.12
2024-03-27T01:51:09.756Z,4.03
2024-03-27T01:53:37.122Z,3.99
2024-03-27T01:56:04.730Z,3.95
2024-03-27T01:58:32.122Z,3.86
2024-03-27T02:00:59.424Z,3.78
2024-03-27T02:03:26.866Z,3.66
2024-03-27T02:05:54.168Z,3.57
2024-03-27T02:08:21.536Z,3.51
2024-03-27T02:10:48.819Z,3.51
2024-03-27T02:13:16.154Z,3.54
2024-03-27T02:15:43.438Z,3.57
2024-03-27T02:18:10.724Z,3.55
2024-03-27T02:20:38.906Z,3.59
2024-03-27T02:23:09.918Z,3.65
2024-03-27T02:25:59.096Z,3.72
2024-03-27T02:28:26.437Z,3.81
2024-03-27T02:30:54.634Z,3.89
2024-03-27T02:33:22.012Z,3.94
2024-03-27T02:35:49.353Z,3.88
2024-03-27T02:38:16.687Z,3.91
2024-03-27T02:40:43.966Z,3.95
2024-03-27T02:43:11.294Z,4.01
2024-03-27T02:45:38.560Z,4.02
2024-03-27T02:48:06.768Z,4.04
2024-03-27T02:50:34.096Z,4.08
2024-03-27T02:53:01.374Z,4.09
2024-03-27T02:55:28.690Z,4.13
2024-03-27T02:57:56.002Z,4.18
2024-03-27T03:00:23.318Z,4.24
2024-03-27T03:02:50.626Z,4.24
2024-03-27T03:05:17.962Z,4.19
2024-03-27T03:07:46.633Z,4.10
2024-03-27T03:10:14.294Z,4.08
2024-03-27T03:12:41.598Z,4.12
2024-03-27T03:15:09.020Z,4.16
2024-03-27T03:17:37.014Z,4.20
2024-03-27T03:20:08.119Z,4.21
2024-03-27T03:22:35.520Z,4.22
2024-03-27T03:25:02.877Z,4.31
2024-03-27T03:27:30.343Z,4.33
2024-03-27T03:29:57.729Z,4.35
2024-03-27T03:32:25.096Z,4.32
2024-03-27T03:34:52.997Z,4.28
2024-03-27T03:37:20.294Z,4.25
2024-03-27T03:39:47.605Z,4.22
2024-03-27T03:42:14.956Z,4.16
2024-03-27T03:44:42.310Z,4.15
2024-03-27T03:47:09.563Z,4.17
2024-03-27T03:49:37.428Z,4.17
2024-03-27T03:52:04.909Z,4.18
2024-03-27T03:54:32.217Z,4.17
2024-03-27T03:57:00.077Z,4.18
2024-03-27T03:59:27.428Z,4.13
2024-03-27T04:01:54.996Z,4.13
2024-03-27T04:04:22.362Z,4.10
2024-03-27T04:06:49.723Z,4.09
2024-03-27T04:09:18.505Z,4.00
2024-03-27T04:11:46.267Z,3.98
2024-03-27T04:14:13.720Z,3.99
2024-03-27T04:16:41.080Z,3.98
2024-03-27T04:19:08.435Z,3.89
2024-03-27T04:21:35.785Z,3.82
2024-03-27T04:24:03.671Z,3.76
2024-03-27T04:26:31.164Z,3.76
2024-03-27T04:28:59.149Z,3.73
2024-03-27T04:31:26.519Z,3.75
2024-03-27T04:33:53.867Z,3.70
2024-03-27T04:36:21.665Z,3.69
2024-03-27T04:38:49.942Z,3.69
2024-03-27T04:41:17.301Z,3.68
2024-03-27T04:43:44.600Z,3.75
2024-03-27T04:46:11.944Z,3.78
2024-03-27T04:48:39.286Z,3.91
2024-03-27T04:51:06.607Z,4.02
2024-03-27T04:53:33.893Z,4.08
2024-03-27T04:56:01.207Z,4.16
2024-03-27T04:58:28.577Z,4.23
2024-03-27T05:00:55.889Z,4.26
2024-03-27T05:03:23.394Z,4.29
2024-03-27T05:05:50.777Z,4.28
2024-03-27T05:08:18.223Z,4.30
2024-03-27T05:10:45.592Z,4.31
2024-03-27T05:13:12.939Z,4.32
2024-03-27T05:15:40.974Z,4.34
2024-03-27T05:18:09.058Z,4.37
2024-03-27T05:20:36.336Z,4.47
2024-03-27T05:23:03.881Z,4.53
2024-03-27T05:25:31.234Z,4.60
2024-03-27T05:27:59.848Z,4.68
2024-03-27T05:30:28.008Z,4.73
2024-03-27T05:32:55.361Z,4.75
2024-03-27T05:35:22.662Z,4.76
2024-03-27T05:37:49.938Z,4.83
2024-03-27T05:40:17.402Z,4.91
2024-03-27T05:42:46.221Z,4.99
2024-03-27T05:45:14.108Z,5.08
2024-03-27T05:47:44.439Z,5.21
2024-03-27T05:50:11.731Z,5.39
2024-03-27T05:52:39.048Z,5.50
2024-03-27T05:55:06.911Z,5.58
2024-03-27T05:57:34.293Z,5.72
2024-03-27T06:00:01.650Z,5.76
2024-03-27T06:02:29.242Z,5.82
2024-03-27T06:04:56.647Z,5.94
2024-03-27T06:07:24.011Z,6.07
2024-03-27T06:09:51.558Z,6.27
2024-03-27T06:12:18.968Z,6.41
2024-03-27T06:14:46.827Z,6.60
2024-03-27T06:17:14.837Z,6.81
2024-03-27T06:19:42.195Z,7.00
2024-03-27T06:22:09.488Z,7.14
2024-03-27T06:24:36.980Z,7.28
2024-03-27T06:27:04.366Z,7.40
2024-03-27T06:29:31.905Z,7.57
2024-03-27T06:31:59.273Z,7.74
2024-03-27T06:34:26.746Z,7.91
2024-03-27T06:36:54.343Z,8.09
2024-03-27T06:39:23.090Z,8.29
2024-03-27T06:41:50.418Z,8.46
2024-03-27T06:44:17.923Z,8.54
2024-03-27T06:46:46.225Z,8.48
2024-03-27T06:49:34.753Z,8.50
2024-03-27T06:52:02.703Z,8.54
2024-03-27T06:54:31.514Z,8.60
2024-03-27T06:57:02.068Z,8.69
2024-03-27T06:59:29.690Z,8.73
2024-03-27T07:01:57.330Z,8.72
2024-03-27T07:04:27.385Z,8.72
2024-03-27T07:06:55.237Z,8.74
2024-03-27T07:09:22.904Z,8.72
2024-03-27T07:11:51.118Z,8.76
2024-03-27T07:14:19.019Z,8.92
2024-03-27T07:16:46.511Z,9.05
2024-03-27T07:19:14.404Z,9.16
2024-03-27T07:21:45.240Z,9.28
2024-03-27T07:24:12.907Z,9.42
2024-03-27T07:26:40.329Z,9.54
2024-03-27T07:29:08.613Z,9.61
2024-03-27T07:31:36.045Z,9.70
2024-03-27T07:34:04.683Z,9.71
2024-03-27T07:36:35.085Z,9.75
2024-03-27T07:39:03.092Z,9.87
2024-03-27T07:41:35.796Z,9.97
2024-03-27T07:44:06.699Z,9.90
2024-03-27T07:46:34.223Z,9.81
2024-03-27T07:49:04.531Z,9.80
2024-03-27T07:51:32.201Z,9.67
2024-03-27T07:53:59.593Z,9.56
2024-03-27T07:56:27.497Z,9.58
2024-03-27T07:58:54.950Z,9.70
2024-03-27T08:01:22.924Z,9.71
2024-03-27T08:03:51.253Z,9.74
2024-03-27T08:06:19.373Z,9.88
2024-03-27T08:08:46.959Z,9.98
2024-03-27T08:11:14.620Z,9.97
2024-03-27T08:13:43.392Z,9.93
2024-03-27T08:16:11.578Z,9.95
2024-03-27T08:18:46.826Z,10.00
2024-03-27T08:21:14.540Z,10.04
2024-03-27T08:23:41.940Z,10.04
2024-03-27T08:26:10.498Z,10.10
2024-03-27T08:28:41.830Z,10.13
2024-03-27T08:31:09.493Z,10.21
2024-03-27T08:33:37.045Z,10.24
2024-03-27T08:36:06.153Z,10.23
2024-03-27T08:38:34.654Z,10.19
2024-03-27T08:41:02.270Z,10.16
2024-03-27T08:43:29.808Z,10.15
2024-03-27T08:45:57.270Z,10.16
2024-03-27T08:48:25.523Z,10.17
2024-03-27T08:50:53.567Z,10.22
2024-03-27T08:53:21.056Z,10.27
2024-03-27T08:55:49.367Z,10.29
2024-03-27T08:58:18.178Z,10.29
2024-03-27T09:00:46.818Z,10.32
2024-03-27T09:03:17.540Z,10.42
2024-03-27T09:05:45.482Z,10.49
2024-03-27T09:08:13.392Z,10.47
2024-03-27T09:10:45.529Z,10.45
2024-03-27T09:13:13.156Z,10.45
2024-03-27T09:15:40.800Z,10.49
2024-03-27T09:18:08.575Z,10.49
2024-03-27T09:20:39.263Z,10.58
2024-03-27T09:23:07.359Z,10.67
2024-03-27T09:25:35.850Z,10.74
2024-03-27T09:28:03.777Z,10.72
2024-03-27T09:30:31.177Z,10.63
2024-03-27T09:32:58.733Z,10.57
2024-03-27T09:35:26.312Z,10.52
2024-03-27T09:37:59.202Z,10.53
2024-03-27T09:40:26.984Z,10.52
2024-03-27T09:42:54.409Z,10.59
2024-03-27T09:45:21.944Z,10.60
2024-03-27T09:47:52.716Z,10.66
2024-03-27T09:50:20.460Z,10.75
2024-03-27T09:52:47.866Z,10.81
2024-03-27T09:55:15.573Z,10.87
2024-03-27T09:57:43.937Z,10.89
2024-03-27T10:00:12.097Z,10.88
2024-03-27T10:02:39.608Z,10.95
2024-03-27T10:05:10.558Z,10.95
2024-03-27T10:07:38.019Z,11.00
2024-03-27T10:10:06.694Z,11.06
2024-03-27T10:12:34.837Z,11.09
2024-03-27T10:15:06.338Z,11.14
2024-03-27T10:17:34.071Z,11.21
2024-03-27T10:20:02.174Z,11.15
2024-03-27T10:22:33.090Z,11.16
2024-03-27T10:25:03.147Z,11.13
2024-03-27T10:27:32.188Z,11.12
2024-03-27T10:30:00.260Z,11.03
2024-03-27T10:32:28.045Z,11.02
2024-03-27T10:35:05.627Z,11.04
2024-03-27T10:37:34.751Z,11.08
2024-03-27T10:40:03.576Z,11.06
2024-03-27T10:42:31.081Z,11.05
2024-03-27T10:44:59.641Z,11.03
2024-03-27T10:47:36.220Z,10.99
2024-03-27T10:50:05.782Z,11.09
2024-03-27T10:52:34.181Z,11.16
2024-03-27T10:55:02.328Z,11.16
2024-03-27T10:57:29.773Z,11.17
2024-03-27T10:59:57.690Z,11.10
2024-03-27T11:02:25.829Z,11.01
2024-03-27T11:04:57.706Z,10.93
2024-03-27T11:07:25.203Z,10.89
2024-03-27T11:09:54.887Z,10.93
2024-03-27T11:12:24.623Z,10.95
2024-03-27T11:14:52.332Z,10.88
2024-03-27T11:17:26.886Z,10.82
2024-03-27T11:19:57.577Z,10.83
2024-03-27T11:22:25.573Z,10.84
2024-03-27T11:24:53.137Z,10.71
2024-03-27T11:27:30.401Z,10.68
2024-03-27T11:29:58.695Z,10.74
2024-03-27T11:32:36.466Z,10.78
2024-03-27T11:35:05.200Z,10.75
2024-03-27T11:37:33.044Z,10.68
2024-03-27T11:40:00.741Z,10.66
2024-03-27T11:42:31.463Z,10.65
2024-03-27T11:44:58.898Z,10.66
2024-03-27T11:47:26.319Z,10.63
2024-03-27T11:49:54.529Z,10.65
2024-03-27T11:52:22.379Z,10.66
2024-03-27T11:54:57.890Z,10.65
2024-03-27T11:57:25.445Z,10.66
2024-03-27T11:59:52.904Z,10.66
2024-03-27T12:02:20.690Z,10.65
2024-03-27T12:04:48.973Z,10.57
2024-03-27T12:07:16.883Z,10.60
2024-03-27T12:09:44.890Z,10.65
2024-03-27T12:12:18.562Z,10.73
2024-03-27T12:14:46.085Z,10.73
2024-03-27T12:17:16.837Z,10.75
2024-03-27T12:19:57.169Z,10.74
2024-03-27T12:22:27.379Z,10.75
2024-03-27T12:24:55.015Z,10.72
2024-03-27T12:27:24.094Z,10.76
2024-03-27T12:29:51.722Z,10.74
2024-03-27T12:32:20.439Z,10.76
2024-03-27T12:34:51.343Z,10.76
2024-03-27T12:37:19.209Z,10.77
2024-03-27T12:39:47.716Z,10.76
2024-03-27T12:42:18.337Z,10.78
2024-03-27T12:44:46.143Z,10.77
2024-03-27T12:47:13.595Z,10.73
2024-03-27T12:49:42.106Z,10.71
2024-03-27T12:52:10.927Z,10.70
2024-03-27T12:54:38.512Z,10.72
2024-03-27T12:57:06.257Z,10.75
2024-03-27T12:59:33.724Z,10.67
2024-03-27T13:02:01.344Z,10.65
2024-03-27T13:04:34.138Z,10.68
2024-03-27T13:07:02.155Z,10.78
2024-03-27T13:09:29.803Z,10.86
2024-03-27T13:11:57.332Z,10.92
2024-03-27T13:14:24.902Z,10.91
2024-03-27T13:16:55.524Z,10.87
2024-03-27T13:19:25.954Z,10.85
2024-03-27T13:21:56.786Z,10.77
2024-03-27T13:24:27.845Z,10.65
2024-03-27T13:26:56.134Z,10.56
2024-03-27T13:29:23.670Z,10.54
2024-03-27T13:32:00.295Z,10.53
2024-03-27T13:34:37.722Z,10.49
2024-03-27T13:37:06.539Z,10.38
2024-03-27T13:39:34.169Z,10.37
2024-03-27T13:42:04.531Z,10.41
2024-03-27T13:44:32.038Z,10.43
2024-03-27T13:46:59.703Z,10.47
2024-03-27T13:49:33.752Z,10.52
2024-03-27T13:52:02.088Z,10.64
2024-03-27T13:54:35.628Z,10.67
2024-03-27T13:57:06.334Z,10.73
2024-03-27T13:59:34.439Z,10.75
2024-03-27T14:02:04.948Z,10.70
2024-03-27T14:04:34.332Z,10.60
2024-03-27T14:07:03.838Z,10.63
2024-03-27T14:09:32.097Z,10.59
2024-03-27T14:11:59.962Z,10.61
2024-03-27T14:14:30.768Z,10.70
2024-03-27T14:16:58.644Z,10.76
2024-03-27T14:19:26.778Z,10.84
2024-03-27T14:21:54.317Z,10.90
2024-03-27T14:24:22.467Z,10.93
2024-03-27T14:26:50.357Z,10.84
2024-03-27T14:29:27.030Z,10.81
2024-03-27T14:31:54.847Z,10.91
2024-03-27T14:34:23.035Z,10.92
2024-03-27T14:36:50.543Z,10.87
2024-03-27T14:39:21.063Z,10.76
2024-03-27T14:41:49.834Z,10.63
2024-03-27T14:44:20.888Z,10.59
2024-03-27T14:46:48.635Z,10.58
2024-03-27T14:49:16.449Z,10.62
2024-03-27T14:51:45.348Z,10.56
2024-03-27T14:54:13.067Z,10.49
2024-03-27T14:56:41.256Z,10.51
2024-03-27T14:59:09.912Z,10.45
2024-03-27T15:01:38.500Z,10.37
2024-03-27T15:04:06.142Z,10.30
2024-03-27T15:06:33.598Z,10.18
2024-03-27T15:09:03.619Z,10.15
2024-03-27T15:11:31.222Z,10.02
2024-03-27T15:13:58.729Z,9.94
2024-03-27T15:16:26.797Z,9.87
2024-03-27T15:18:54.326Z,9.84
2024-03-27T15:21:23.772Z,9.75
2024-03-27T15:23:51.299Z,9.65
2024-03-27T15:26:18.883Z,9.62
2024-03-27T15:28:49.463Z,9.64
2024-03-27T15:31:19.744Z,9.60
2024-03-27T15:33:49.063Z,9.58
2024-03-27T15:36:16.760Z,9.51
2024-03-27T15:38:44.462Z,9.54
2024-03-27T15:41:12.277Z,9.43
2024-03-27T15:43:39.913Z,9.27
2024-03-27T15:46:07.325Z,9.28
2024-03-27T15:48:34.904Z,9.23
2024-03-27T15:51:02.542Z,9.13
2024-03-27T15:53:30.223Z,9.10
2024-03-27T15:55:58.082Z,9.03
2024-03-27T15:58:28.291Z,8.99
2024-03-27T16:00:55.834Z,8.94
2024-03-27T16:03:24.416Z,8.95
2024-03-27T16:05:55.531Z,8.95
2024-03-27T16:08:23.270Z,8.93
2024-03-27T16:10:53.439Z,8.84
2024-03-27T16:13:23.677Z,8.81
2024-03-27T16:15:51.128Z,8.79
2024-03-27T16:18:18.708Z,8.74
2024-03-27T16:20:51.239Z,8.74
2024-03-27T16:23:19.347Z,8.71
2024-03-27T16:25:46.868Z,8.58
2024-03-27T16:28:14.982Z,8.52
2024-03-27T16:30:44.050Z,8.50
2024-03-27T16:33:11.532Z,8.43
2024-03-27T16:35:39.028Z,8.36
2024-03-27T16:38:06.465Z,8.46
2024-03-27T16:40:33.982Z,8.37
2024-03-27T16:43:01.644Z,8.36
2024-03-27T16:45:30.445Z,8.41
2024-03-27T16:47:57.828Z,8.42
2024-03-27T16:50:25.326Z,8.38
2024-03-27T16:52:53.532Z,8.29
2024-03-27T16:55:21.628Z,8.38
2024-03-27T16:57:49.124Z,8.39
2024-03-27T17:00:19.947Z,8.40
2024-03-27T17:02:47.324Z,8.42
2024-03-27T17:05:14.851Z,8.34
2024-03-27T17:07:42.320Z,8.35
2024-03-27T17:10:11.943Z,8.35
2024-03-27T17:12:39.328Z,8.35
2024-03-27T17:15:06.917Z,8.32
2024-03-27T17:17:34.308Z,8.29
2024-03-27T17:20:01.937Z,8.25
2024-03-27T17:22:29.452Z,8.28
2024-03-27T17:24:57.117Z,8.28
2024-03-27T17:27:24.619Z,8.21
2024-03-27T17:29:52.104Z,8.22
2024-03-27T17:32:19.745Z,8.27
2024-03-27T17:34:47.185Z,8.25
2024-03-27T17:37:14.661Z,8.28
2024-03-27T17:39:42.523Z,8.32
2024-03-27T17:42:10.071Z,8.30
2024-03-27T17:44:38.501Z,8.24
2024-03-27T17:47:06.070Z,8.23
2024-03-27T17:49:33.478Z,8.19
2024-03-27T17:52:03.189Z,8.15
2024-03-27T17:54:34.735Z,8.16
2024-03-27T17:57:03.669Z,8.16
2024-03-27T17:59:31.164Z,8.10
2024-03-27T18:01:58.724Z,8.07
2024-03-27T18:04:26.722Z,8.11
2024-03-27T18:06:55.615Z,8.03
2024-03-27T18:09:23.073Z,8.07
2024-03-27T18:11:50.570Z,8.09
2024-03-27T18:14:19.523Z,8.09
2024-03-27T18:16:46.985Z,8.08
2024-03-27T18:19:14.434Z,8.09
2024-03-27T18:21:41.808Z,8.06
2024-03-27T18:24:10.616Z,8.04
2024-03-27T18:26:38.181Z,8.07
2024-03-27T18:29:05.631Z,8.07
2024-03-27T18:31:33.606Z,8.06
2024-03-27T18:34:02.920Z,8.06
2024-03-27T18:36:30.324Z,8.05
2024-03-27T18:38:57.881Z,8.06
2024-03-27T18:41:25.597Z,8.05
2024-03-27T18:43:53.056Z,8.00
2024-03-27T18:46:20.778Z,8.04
2024-03-27T18:48:50.131Z,8.04
2024-03-27T18:51:17.656Z,7.99
2024-03-27T18:53:45.271Z,7.90
2024-03-27T18:56:15.369Z,7.95
2024-03-27T18:58:45.833Z,7.95
2024-03-27T19:01:14.912Z,7.95
2024-03-27T19:03:43.723Z,7.96
2024-03-27T19:06:12.792Z,7.99
2024-03-27T19:08:42.340Z,7.98
2024-03-27T19:11:19.674Z,7.99
2024-03-27T19:13:55.323Z,7.97
2024-03-27T19:16:26.940Z,7.96
2024-03-27T19:19:03.039Z,7.97
2024-03-27T19:21:31.519Z,7.96
2024-03-27T19:24:00.482Z,7.93
2024-03-27T19:26:29.302Z,7.94
2024-03-27T19:28:58.998Z,7.90
2024-03-27T19:31:26.387Z,7.84
2024-03-27T19:33:53.761Z,7.84
2024-03-27T19:36:23.405Z,7.83
2024-03-27T19:38:50.911Z,7.84
2024-03-27T19:41:18.358Z,7.81
2024-03-27T19:43:45.802Z,7.77
2024-03-27T19:46:13.211Z,7.76
2024-03-27T19:48:41.907Z,7.77
2024-03-27T19:51:09.409Z,7.78
2024-03-27T19:53:39.019Z,7.79
2024-03-27T19:56:08.651Z,7.83
2024-03-27T19:58:36.512Z,7.81
2024-03-27T20:01:08.271Z,7.82
2024-03-27T20:03:37.062Z,7.82
2024-03-27T20:06:04.678Z,7.79
2024-03-27T20:08:32.166Z,7.81
2024-03-27T20:11:04.347Z,7.86
2024-03-27T20:13:34.953Z,7.83
2024-03-27T20:16:04.744Z,7.85
2024-03-27T20:18:32.296Z,7.81
2024-03-27T20:21:04.583Z,7.84
2024-03-27T20:23:32.034Z,7.86
2024-03-27T20:26:00.231Z,7.88
2024-03-27T20:28:27.907Z,7.91
2024-03-27T20:30:55.432Z,7.91
2024-03-27T20:33:22.788Z,7.93
2024-03-27T20:35:51.112Z,7.98
2024-03-27T20:38:18.738Z,7.96
2024-03-27T20:40:50.996Z,7.98
2024-03-27T20:43:18.365Z,8.00
2024-03-27T20:45:45.862Z,8.04
2024-03-27T20:48:13.285Z,8.07
2024-03-27T20:50:41.379Z,8.10
2024-03-27T20:53:09.688Z,8.16
2024-03-27T20:55:37.274Z,8.18
2024-03-27T20:58:04.828Z,8.22
2024-03-27T21:00:32.219Z,8.27
2024-03-27T21:03:04.294Z,8.32
2024-03-27T21:05:31.877Z,8.38
2024-03-27T21:07:59.326Z,8.44
2024-03-27T21:10:27.150Z,8.43
2024-03-27T21:12:56.649Z,8.51
2024-03-27T21:15:24.051Z,8.55
2024-03-27T21:17:51.503Z,8.58
2024-03-27T21:20:19.023Z,8.58
2024-03-27T21:22:46.387Z,8.57
2024-03-27T21:25:13.962Z,8.58
2024-03-27T21:27:41.338Z,8.55
2024-03-27T21:30:08.931Z,8.57
2024-03-27T21:32:36.447Z,8.55
2024-03-27T21:35:04.013Z,8.53
2024-03-27T21:37:31.376Z,8.51
2024-03-27T21:39:58.675Z,8.50
2024-03-27T21:42:26.009Z,8.50
2024-03-27T21:44:53.353Z,8.51
2024-03-27T21:47:21.232Z,8.52
2024-03-27T21:49:48.697Z,8.51
2024-03-27T21:52:16.048Z,8.52
2024-03-27T21:54:43.420Z,8.53
2024-03-27T21:57:10.866Z,8.52
2024-03-27T21:59:38.205Z,8.53
2024-03-27T22:02:05.633Z,8.54
2024-03-27T22:04:33.052Z,8.49
2024-03-27T22:07:00.533Z,8.46
2024-03-27T22:09:27.861Z,8.47
2024-03-27T22:11:55.254Z,8.42
2024-03-27T22:14:22.550Z,8.43
2024-03-27T22:16:49.936Z,8.48
2024-03-27T22:19:18.359Z,8.53
2024-03-27T22:21:45.637Z,8.58
2024-03-27T22:24:13.002Z,8.59
2024-03-27T22:26:40.403Z,8.62
2024-03-27T22:29:07.793Z,8.63
2024-03-27T22:31:35.224Z,8.63
2024-03-27T22:34:02.492Z,8.61
2024-03-27T22:36:29.914Z,8.61
2024-03-27T22:38:57.604Z,8.67
2024-03-27T22:41:25.054Z,8.67
2024-03-27T22:43:52.367Z,8.69
2024-03-27T22:46:19.800Z,8.68
2024-03-27T22:48:56.754Z,8.65
2024-03-27T22:51:27.674Z,8.62
2024-03-27T22:53:54.971Z,8.65
2024-03-27T22:56:22.305Z,8.65
2024-03-27T22:58:49.739Z,8.64
2024-03-27T23:01:17.847Z,8.63
2024-03-27T23:03:45.237Z,8.63
2024-03-27T23:06:13.517Z,8.63
2024-03-27T23:08:41.046Z,8.67
2024-03-27T23:11:17.112Z,8.70
2024-03-27T23:13:44.375Z,8.71
2024-03-27T23:16:11.754Z,8.72
2024-03-27T23:18:39.872Z,8.71
2024-03-27T23:21:07.178Z,8.71
2024-03-27T23:23:34.489Z,8.72
2024-03-27T23:26:01.863Z,8.71
2024-03-27T23:28:29.265Z,8.72
2024-03-27T23:30:56.964Z,8.77
2024-03-27T23:33:25.661Z,8.78
2024-03-27T23:35:52.977Z,8.81
2024-03-27T23:38:20.238Z,8.80
2024-03-27T23:40:47.591Z,8.77
2024-03-27T23:43:14.971Z,8.76
2024-03-27T23:45:42.238Z,8.73
2024-03-27T23:48:10.692Z,8.68
2024-03-27T23:50:38.178Z,8.72
2024-03-27T23:53:05.468Z,8.72
2024-03-27T23:55:32.875Z,8.74
2024-03-27T23:58:00.215Z,8.78
